createdAt,value
2022-08-03T00:01:48.480Z,19.16
2022-08-03T00:04:15.232Z,19.10
2022-08-03T00:06:41.767Z,19.10
2022-08-03T00:09:08.295Z,19.08
2022-08-03T00:11:35.474Z,19.04
2022-08-03T00:14:02.459Z,19.05
2022-08-03T00:16:29.204Z,19.00
2022-08-03T00:18:55.676Z,18.99
2022-08-03T00:21:22.209Z,18.95
2022-08-03T00:23:51.570Z,18.92
2022-08-03T00:26:22.569Z,18.91
2022-08-03T00:28:49.927Z,18.85
2022-08-03T00:31:16.519Z,18.88
2022-08-03T00:33:57.943Z,18.79
2022-08-03T00:36:26.279Z,18.79
2022-08-03T00:38:52.725Z,18.75
2022-08-03T00:41:19.181Z,18.66
2022-08-03T00:43:47.348Z,18.68
2022-08-03T00:46:19.008Z,18.72
2022-08-03T00:48:51.766Z,18.63
2022-08-03T00:51:21.318Z,18.57
2022-08-03T00:53:48.137Z,18.57
2022-08-03T00:56:16.021Z,18.52
2022-08-03T00:58:45.377Z,18.62
2022-08-03T01:01:12.462Z,18.59
2022-08-03T01:03:39.787Z,18.53
2022-08-03T01:06:23.076Z,18.54
2022-08-03T01:09:17.158Z,18.48
2022-08-03T01:12:01.016Z,18.45
2022-08-03T01:14:37.472Z,18.38
2022-08-03T01:17:19.306Z,18.48
2022-08-03T01:20:06.738Z,18.37
2022-08-03T01:23:08.815Z,18.29
2022-08-03T01:25:56.572Z,18.28
2022-08-03T01:28:45.180Z,18.36
2022-08-03T01:31:15.864Z,18.32
2022-08-03T01:33:46.843Z,18.27
2022-08-03T01:36:16.085Z,18.28
2022-08-03T01:38:48.651Z,18.17
2022-08-03T01:41:20.071Z,18.19
2022-08-03T01:44:26.486Z,18.23
2022-08-03T01:46:38.383Z,18.15
2022-08-03T01:49:09.366Z,18.12
2022-08-03T01:51:58.624Z,18.07
2022-08-03T01:54:26.703Z,18.08
2022-08-03T01:56:56.721Z,18.08
2022-08-03T01:59:25.757Z,18.05
2022-08-03T02:02:15.472Z,18.08
2022-08-03T02:04:42.391Z,17.99
2022-08-03T02:07:10.257Z,17.97
2022-08-03T02:09:41.616Z,18.00
2022-08-03T02:25:53.891Z,17.79
2022-08-03T02:28:22.650Z,17.77
2022-08-03T02:30:53.920Z,17.74
2022-08-03T02:33:38.821Z,17.76
2022-08-03T02:36:07.856Z,17.76
2022-08-03T02:38:38.980Z,17.75
2022-08-03T02:41:11.412Z,17.73
2022-08-03T02:44:05.487Z,17.67
2022-08-03T02:46:34.304Z,17.62
2022-08-03T02:49:34.918Z,17.63
2022-08-03T02:51:52.365Z,17.59
2022-08-03T02:54:21.844Z,17.56
2022-08-03T02:56:49.463Z,17.50
2022-08-03T02:59:18.649Z,17.56
2022-08-03T03:01:46.010Z,17.54
2022-08-03T03:04:13.913Z,17.50
2022-08-03T03:06:41.310Z,17.45
2022-08-03T03:09:10.024Z,17.46
2022-08-03T03:11:38.936Z,17.48
2022-08-03T03:14:06.189Z,17.47
2022-08-03T03:16:36.283Z,17.42
2022-08-03T03:19:03.114Z,17.40
2022-08-03T03:21:31.051Z,17.41
2022-08-03T03:23:58.723Z,17.41
2022-08-03T03:26:25.606Z,17.35
2022-08-03T03:28:52.428Z,17.32
2022-08-03T03:31:18.925Z,17.33
2022-08-03T03:33:45.419Z,17.36
2022-08-03T03:36:12.016Z,17.35
2022-08-03T03:38:38.623Z,17.31
2022-08-03T03:41:05.616Z,17.31
2022-08-03T03:43:32.215Z,17.28
2022-08-03T03:45:58.778Z,17.27
2022-08-03T03:48:26.296Z,17.23
2022-08-03T03:50:53.336Z,17.23
2022-08-03T03:53:20.336Z,17.20
2022-08-03T03:55:57.735Z,17.18
2022-08-03T03:58:29.018Z,17.18
2022-08-03T04:00:55.587Z,17.20
2022-08-03T04:03:22.243Z,17.16
2022-08-03T04:06:07.349Z,17.16
2022-08-03T04:08:52.586Z,17.16
2022-08-03T04:11:29.242Z,17.12
2022-08-03T04:14:19.223Z,17.12
2022-08-03T04:16:54.918Z,17.16
2022-08-03T04:19:30.687Z,17.21
2022-08-03T04:22:02.383Z,17.15
2022-08-03T04:24:37.684Z,17.14
2022-08-03T04:27:09.053Z,17.08
2022-08-03T04:29:48.042Z,17.15
2022-08-03T04:32:16.957Z,17.15
2022-08-03T04:34:44.168Z,17.08
2022-08-03T04:37:24.104Z,17.14
2022-08-03T04:39:53.509Z,17.10
2022-08-03T04:42:25.715Z,17.05
2022-08-03T04:44:56.552Z,17.05
2022-08-03T04:47:27.546Z,17.08
2022-08-03T04:49:54.756Z,17.07
2022-08-03T04:52:21.350Z,17.11
2022-08-03T04:54:50.687Z,17.16
2022-08-03T04:57:22.527Z,17.17
2022-08-03T05:00:01.944Z,17.16
2022-08-03T05:02:29.080Z,17.21
2022-08-03T05:04:55.492Z,17.50
2022-08-03T05:07:24.837Z,17.60
2022-08-03T05:09:57.672Z,17.65
2022-08-03T05:12:32.896Z,17.84
2022-08-03T05:15:00.763Z,17.92
2022-08-03T05:17:28.419Z,17.95
2022-08-03T05:19:55.050Z,18.10
2022-08-03T05:22:22.089Z,18.21
2022-08-03T05:24:48.835Z,18.20
2022-08-03T05:27:22.121Z,18.28
2022-08-03T05:29:50.367Z,18.44
2022-08-03T05:32:18.000Z,18.51
2022-08-03T05:34:44.796Z,18.77
2022-08-03T05:37:11.460Z,18.78
2022-08-03T05:39:38.185Z,19.01
2022-08-03T05:42:04.638Z,19.25
2022-08-03T05:44:31.684Z,19.49
2022-08-03T05:46:59.169Z,19.71
2022-08-03T05:49:25.647Z,19.72
2022-08-03T05:52:00.401Z,19.88
2022-08-03T05:54:55.946Z,20.08
2022-08-03T05:57:23.499Z,20.12
2022-08-03T05:59:53.934Z,20.29
2022-08-03T06:02:26.555Z,20.49
2022-08-03T06:04:53.095Z,20.78
2022-08-03T06:07:19.588Z,20.86
2022-08-03T06:10:36.328Z,20.96
2022-08-03T06:12:35.971Z,21.03
2022-08-03T06:15:04.012Z,21.14
2022-08-03T06:17:30.550Z,21.37
2022-08-03T06:20:05.590Z,21.37
2022-08-03T06:22:32.053Z,21.36
2022-08-03T06:24:58.711Z,21.53
2022-08-03T06:27:37.083Z,21.45
2022-08-03T06:30:05.227Z,21.82
2022-08-03T06:32:31.685Z,21.98
2022-08-03T06:34:58.128Z,22.22
2022-08-03T06:37:24.904Z,22.23
2022-08-03T06:39:51.359Z,22.42
2022-08-03T06:42:18.160Z,22.60
2022-08-03T06:44:47.150Z,22.84
2022-08-03T06:47:13.628Z,22.77
2022-08-03T06:49:41.396Z,22.84
2022-08-03T06:52:07.890Z,23.00
2022-08-03T06:54:34.905Z,23.44
2022-08-03T06:57:01.442Z,23.56
2022-08-03T07:00:06.415Z,23.42
2022-08-03T07:02:19.082Z,23.58
2022-08-03T07:04:47.373Z,24.06
2022-08-03T07:07:14.034Z,24.32
2022-08-03T07:09:40.520Z,24.39
2022-08-03T07:12:08.493Z,24.69
2022-08-03T07:14:35.009Z,24.49
2022-08-03T07:17:01.465Z,24.95
2022-08-03T07:19:31.205Z,25.32
2022-08-03T07:22:04.386Z,25.28
2022-08-03T07:24:31.034Z,25.42
2022-08-03T07:26:57.733Z,25.43
2022-08-03T07:29:24.166Z,25.65
2022-08-03T07:31:50.604Z,26.30
2022-08-03T07:34:17.065Z,26.16
2022-08-03T07:36:43.507Z,26.47
2022-08-03T07:39:17.523Z,27.33
2022-08-03T07:41:45.108Z,27.07
2022-08-03T07:44:11.598Z,26.56
2022-08-03T07:46:38.064Z,26.91
2022-08-03T07:49:05.198Z,26.99
2022-08-03T07:51:31.785Z,27.22
2022-08-03T07:53:58.322Z,27.53
2022-08-03T07:56:24.984Z,27.69
2022-08-03T07:58:52.240Z,28.13
2022-08-03T08:01:19.542Z,27.99
2022-08-03T08:03:52.770Z,27.79
2022-08-03T08:06:20.825Z,27.79
2022-08-03T08:08:47.598Z,27.81
2022-08-03T08:11:14.216Z,28.27
2022-08-03T08:13:40.712Z,27.94
2022-08-03T08:16:07.264Z,28.18
2022-08-03T08:18:34.410Z,28.30
2022-08-03T08:21:03.144Z,28.26
2022-08-03T08:23:41.984Z,28.17
2022-08-03T08:26:10.428Z,28.21
2022-08-03T08:28:36.986Z,29.04
2022-08-03T08:31:03.544Z,28.86
2022-08-03T08:33:47.856Z,28.84
2022-08-03T08:36:17.025Z,29.56
2022-08-03T08:38:44.940Z,29.22
2022-08-03T08:41:13.253Z,29.28
2022-08-03T08:43:40.116Z,29.27
2022-08-03T08:46:08.452Z,29.51
2022-08-03T08:48:40.358Z,29.43
2022-08-03T08:51:08.396Z,29.50
2022-08-03T08:53:38.287Z,29.23
2022-08-03T08:56:05.495Z,29.29
2022-08-03T08:58:38.727Z,29.17
2022-08-03T09:01:05.896Z,29.59
2022-08-03T09:03:35.333Z,29.27
2022-08-03T09:06:02.548Z,29.33
2022-08-03T09:08:30.433Z,29.79
2022-08-03T09:10:57.048Z,29.55
2022-08-03T09:13:23.579Z,29.62
2022-08-03T09:16:09.813Z,29.95
2022-08-03T09:18:36.397Z,29.95
2022-08-03T09:21:31.715Z,29.91
2022-08-03T09:24:02.715Z,30.31
2022-08-03T09:26:31.406Z,29.94
2022-08-03T09:29:08.186Z,30.34
2022-08-03T09:31:46.699Z,30.97
2022-08-03T09:34:15.539Z,31.18
2022-08-03T09:36:43.771Z,30.63
2022-08-03T09:39:15.273Z,30.86
2022-08-03T09:41:44.303Z,31.04
2022-08-03T09:44:16.229Z,31.12
2022-08-03T09:46:55.279Z,31.83
2022-08-03T09:49:22.624Z,32.11
2022-08-03T09:52:31.467Z,32.09
2022-08-03T09:54:35.697Z,32.18
2022-08-03T09:57:02.292Z,31.61
2022-08-03T09:59:31.633Z,31.86
2022-08-03T10:02:02.272Z,31.84
2022-08-03T10:04:28.841Z,32.07
2022-08-03T10:07:10.102Z,32.00
2022-08-03T10:09:37.558Z,31.91
2022-08-03T10:12:11.775Z,31.96
2022-08-03T10:14:40.223Z,31.44
2022-08-03T10:17:06.734Z,31.61
2022-08-03T10:19:33.905Z,31.57
2022-08-03T10:22:15.144Z,31.87
2022-08-03T10:24:59.177Z,32.01
2022-08-03T10:27:31.464Z,31.44
2022-08-03T10:30:02.968Z,31.80
2022-08-03T10:32:42.329Z,31.79
2022-08-03T10:35:20.205Z,32.03
2022-08-03T10:38:12.691Z,31.19
2022-08-03T10:40:48.617Z,32.18
2022-08-03T10:43:28.478Z,32.64
2022-08-03T10:45:56.218Z,32.79
2022-08-03T10:48:23.507Z,32.55
2022-08-03T10:50:50.761Z,32.34
2022-08-03T10:53:34.650Z,32.55
2022-08-03T10:56:27.431Z,32.35
2022-08-03T10:59:06.622Z,32.81
2022-08-03T11:02:00.241Z,33.72
2022-08-03T11:04:29.555Z,33.35
2022-08-03T11:07:19.821Z,33.43
2022-08-03T11:09:49.347Z,33.02
2022-08-03T11:12:30.597Z,32.72
2022-08-03T11:15:05.358Z,33.08
2022-08-03T11:17:33.853Z,33.00
2022-08-03T11:20:13.827Z,32.82
2022-08-03T11:22:53.919Z,33.04
2022-08-03T11:25:53.239Z,33.07
2022-08-03T11:28:29.339Z,33.18
2022-08-03T11:30:57.275Z,32.88
2022-08-03T11:33:31.575Z,33.15
2022-08-03T11:36:00.421Z,32.98
2022-08-03T11:38:26.908Z,33.49
2022-08-03T11:40:54.337Z,34.24
2022-08-03T11:43:31.212Z,33.49
2022-08-03T11:46:28.476Z,34.10
2022-08-03T11:49:09.456Z,33.90
2022-08-03T11:51:38.665Z,33.42
2022-08-03T11:54:06.441Z,34.03
2022-08-03T11:56:50.455Z,34.57
2022-08-03T11:59:22.021Z,33.95
2022-08-03T12:01:49.384Z,33.23
2022-08-03T12:04:16.249Z,33.43
2022-08-03T12:06:58.259Z,33.70
2022-08-03T12:09:24.782Z,32.96
2022-08-03T12:11:59.632Z,32.94
2022-08-03T12:14:50.730Z,33.20
2022-08-03T12:17:14.709Z,33.33
2022-08-03T12:19:45.184Z,33.71
2022-08-03T12:22:11.769Z,33.93
2022-08-03T12:24:42.510Z,33.98
2022-08-03T12:27:09.316Z,34.30
2022-08-03T12:29:36.176Z,33.70
2022-08-03T12:32:02.963Z,33.58
2022-08-03T12:34:49.131Z,33.22
2022-08-03T12:37:23.522Z,33.37
2022-08-03T12:40:00.667Z,33.35
2022-08-03T12:42:37.390Z,33.76
2022-08-03T12:45:24.668Z,33.61
2022-08-03T12:47:56.334Z,33.24
2022-08-03T12:50:34.601Z,33.26
2022-08-03T12:53:05.191Z,33.43
2022-08-03T12:55:57.630Z,33.51
2022-08-03T12:58:35.817Z,33.61
2022-08-03T13:01:10.130Z,33.48
2022-08-03T13:03:42.956Z,33.10
2022-08-03T13:06:14.683Z,33.42
2022-08-03T13:08:42.028Z,33.44
2022-08-03T13:11:19.138Z,33.19
2022-08-03T13:13:46.077Z,33.19
2022-08-03T13:16:15.848Z,33.55
2022-08-03T13:18:47.070Z,33.67
2022-08-03T13:21:16.203Z,33.68
2022-08-03T13:23:43.787Z,33.94
2022-08-03T13:26:11.092Z,33.38
2022-08-03T13:28:38.712Z,33.51
2022-08-03T13:31:06.111Z,33.78
2022-08-03T13:33:33.791Z,33.64
2022-08-03T13:36:00.213Z,33.69
2022-08-03T13:38:27.069Z,33.60
2022-08-03T13:40:54.254Z,33.71
2022-08-03T13:43:22.032Z,33.74
2022-08-03T13:45:52.337Z,33.58
2022-08-03T13:48:36.899Z,33.81
2022-08-03T13:51:11.979Z,33.94
2022-08-03T13:53:49.791Z,34.40
2022-08-03T13:56:16.219Z,34.14
2022-08-03T13:58:42.699Z,33.63
2022-08-03T14:01:09.496Z,33.88
2022-08-03T14:03:36.036Z,33.71
2022-08-03T14:06:02.529Z,34.09
2022-08-03T14:21:09.100Z,33.47
2022-08-03T14:23:37.795Z,33.45
2022-08-03T14:26:06.515Z,33.52
2022-08-03T14:28:33.348Z,33.30
2022-08-03T14:30:59.922Z,33.65
2022-08-03T14:33:28.240Z,33.66
2022-08-03T14:35:55.412Z,33.78
2022-08-03T14:38:22.600Z,34.22
2022-08-03T14:40:50.272Z,34.05
2022-08-03T14:43:22.915Z,34.47
2022-08-03T14:45:52.361Z,34.49
2022-08-03T14:50:28.837Z,34.67
2022-08-03T14:51:10.091Z,34.39
2022-08-03T14:53:36.576Z,34.32
2022-08-03T14:56:09.423Z,34.58
2022-08-03T14:58:36.838Z,34.96
2022-08-03T15:01:03.843Z,35.31
2022-08-03T15:03:50.333Z,35.66
2022-08-03T15:06:17.098Z,35.40
2022-08-03T15:08:51.431Z,35.38
2022-08-03T15:11:30.171Z,35.64
2022-08-03T15:13:56.550Z,36.25
2022-08-03T15:16:26.618Z,35.57
2022-08-03T15:18:56.588Z,35.45
2022-08-03T15:21:46.826Z,36.01
2022-08-03T15:24:09.687Z,35.88
2022-08-03T15:26:40.980Z,36.16
2022-08-03T15:29:08.293Z,36.69
2022-08-03T15:31:35.085Z,37.23
2022-08-03T15:34:01.769Z,37.12
2022-08-03T15:36:28.220Z,37.23
2022-08-03T15:38:54.710Z,37.92
2022-08-03T15:41:21.205Z,37.96
2022-08-03T15:43:48.184Z,39.02
2022-08-03T15:46:30.402Z,38.45
2022-08-03T15:48:56.939Z,39.11
2022-08-03T15:51:23.420Z,39.55
2022-08-03T15:53:49.869Z,39.28
2022-08-03T15:56:18.773Z,39.76
2022-08-03T15:59:11.352Z,39.45
2022-08-03T16:01:32.748Z,38.94
2022-08-03T16:03:59.241Z,39.26
2022-08-03T16:06:34.625Z,39.64
2022-08-03T16:09:04.618Z,39.43
2022-08-03T16:11:31.251Z,39.63
2022-08-03T16:14:12.448Z,39.61
2022-08-03T16:16:44.580Z,39.51
2022-08-03T16:19:13.199Z,39.37
2022-08-03T16:21:48.259Z,39.00
2022-08-03T16:24:17.554Z,37.95
2022-08-03T16:26:46.577Z,38.30
2022-08-03T16:29:23.639Z,38.43
2022-08-03T16:31:50.853Z,38.15
2022-08-03T16:34:18.111Z,37.27
2022-08-03T16:36:45.603Z,37.12
2022-08-03T16:39:12.107Z,37.36
2022-08-03T16:41:53.779Z,37.16
2022-08-03T16:44:25.830Z,36.84
2022-08-03T16:46:53.525Z,36.69
2022-08-03T16:49:53.191Z,36.36
2022-08-03T16:52:07.122Z,36.17
2022-08-03T16:54:33.816Z,35.99
2022-08-03T16:57:01.413Z,35.64
2022-08-03T16:59:36.293Z,35.54
2022-08-03T17:02:09.964Z,35.67
2022-08-03T17:04:40.333Z,35.58
2022-08-03T17:07:20.462Z,35.35
2022-08-03T17:09:48.995Z,35.19
2022-08-03T17:12:16.340Z,35.06
2022-08-03T17:14:44.715Z,34.55
2022-08-03T17:17:25.269Z,34.14
2022-08-03T17:19:54.240Z,34.02
2022-08-03T17:22:33.324Z,34.02
2022-08-03T17:25:07.719Z,33.86
2022-08-03T17:28:48.177Z,33.87
2022-08-03T17:30:25.182Z,33.66
2022-08-03T17:32:57.169Z,33.57
2022-08-03T17:35:36.985Z,33.45
2022-08-03T17:38:10.314Z,33.26
2022-08-03T17:40:39.268Z,33.12
2022-08-03T17:44:13.884Z,32.85
2022-08-03T17:46:10.600Z,32.65
2022-08-03T17:48:38.116Z,32.61
2022-08-03T17:51:17.239Z,32.38
2022-08-03T17:53:53.021Z,32.01
2022-08-03T17:56:44.353Z,31.76
2022-08-03T17:59:52.816Z,31.54
2022-08-03T18:02:54.730Z,31.47
2022-08-03T18:06:11.821Z,31.26
2022-08-03T18:08:18.091Z,30.90
2022-08-03T18:10:56.521Z,30.56
2022-08-03T18:13:39.500Z,30.25
2022-08-03T18:16:07.856Z,30.13
2022-08-03T18:18:43.244Z,30.02
2022-08-03T18:21:17.091Z,29.91
2022-08-03T18:23:45.707Z,29.76
2022-08-03T18:26:16.936Z,29.68
2022-08-03T18:28:44.485Z,29.37
2022-08-03T18:31:12.702Z,29.03
2022-08-03T18:34:19.597Z,28.89
2022-08-03T18:36:48.081Z,28.73
2022-08-03T18:39:14.975Z,28.81
2022-08-03T18:41:46.505Z,28.56
2022-08-03T18:44:52.538Z,28.33
2022-08-03T18:47:07.394Z,28.35
2022-08-03T18:50:04.652Z,28.24
2022-08-03T18:53:16.629Z,27.99
2022-08-03T18:56:02.119Z,27.78
2022-08-03T18:58:34.730Z,27.64
2022-08-03T19:01:57.539Z,27.64
2022-08-03T19:04:09.741Z,27.34
2022-08-03T19:06:42.512Z,27.15
2022-08-03T19:09:33.254Z,27.11
2022-08-03T19:12:13.337Z,27.13
2022-08-03T19:15:10.630Z,27.00
2022-08-03T19:17:50.159Z,26.90
2022-08-03T19:20:34.887Z,26.79
2022-08-03T19:23:01.795Z,26.72
2022-08-03T19:25:34.833Z,26.68
2022-08-03T19:28:06.312Z,26.71
2022-08-03T19:30:53.207Z,26.58
2022-08-03T19:33:20.593Z,26.56
2022-08-03T19:35:55.154Z,26.53
2022-08-03T19:38:29.093Z,26.38
2022-08-03T19:40:58.359Z,26.35
2022-08-03T19:43:52.993Z,26.26
2022-08-03T19:46:22.581Z,26.21
2022-08-03T19:49:10.356Z,26.16
2022-08-03T19:52:00.723Z,26.10
2022-08-03T19:54:32.270Z,26.01
2022-08-03T19:57:00.303Z,25.99
2022-08-03T19:59:29.454Z,25.90
2022-08-03T20:01:56.559Z,25.81
2022-08-03T20:04:23.189Z,25.77
2022-08-03T20:06:52.181Z,25.66
2022-08-03T20:09:20.373Z,25.55
2022-08-03T20:11:47.685Z,25.51
2022-08-03T20:14:20.688Z,25.42
2022-08-03T20:16:54.244Z,25.39
2022-08-03T20:19:21.407Z,25.36
2022-08-03T20:21:49.899Z,25.30
2022-08-03T20:24:24.188Z,25.24
2022-08-03T20:26:54.153Z,25.14
2022-08-03T20:30:05.482Z,25.06
2022-08-03T20:32:28.418Z,24.96
2022-08-03T20:34:55.521Z,24.94
2022-08-03T20:37:22.037Z,24.91
2022-08-03T20:39:49.556Z,24.88
2022-08-03T20:42:21.240Z,24.80
2022-08-03T20:45:04.769Z,24.68
2022-08-03T20:47:36.958Z,24.67
2022-08-03T20:50:16.991Z,24.60
2022-08-03T20:52:49.512Z,24.60
2022-08-03T20:55:20.317Z,24.51
2022-08-03T20:58:06.666Z,24.56
2022-08-03T21:00:33.099Z,24.55
2022-08-03T21:02:59.534Z,24.43
2022-08-03T21:05:47.924Z,24.41
2022-08-03T21:08:15.866Z,24.31
2022-08-03T21:10:42.790Z,24.34
2022-08-03T21:16:12.959Z,24.22
2022-08-03T21:18:53.092Z,24.19
2022-08-03T21:21:22.820Z,24.12
2022-08-03T21:23:54.705Z,24.07
2022-08-03T21:26:24.189Z,23.99
2022-08-03T21:28:53.011Z,23.98
2022-08-03T21:31:24.908Z,23.96
2022-08-03T21:33:55.003Z,23.93
2022-08-03T21:36:21.459Z,23.94
2022-08-03T21:38:56.190Z,23.92
2022-08-03T21:41:27.789Z,23.80
2022-08-03T21:43:54.278Z,23.78
2022-08-03T21:46:22.110Z,23.72
2022-08-03T21:48:54.570Z,23.73
2022-08-03T21:51:24.612Z,23.73
2022-08-03T21:54:03.701Z,23.79
2022-08-03T21:56:47.152Z,23.69
2022-08-03T21:59:19.585Z,23.63
2022-08-03T22:01:49.074Z,23.59
2022-08-03T22:04:54.968Z,23.52
2022-08-03T22:07:07.946Z,23.46
2022-08-03T22:09:35.377Z,23.42
2022-08-03T22:12:01.854Z,23.39
2022-08-03T22:14:29.698Z,23.34
2022-08-03T22:16:56.574Z,23.30
2022-08-03T22:19:23.129Z,23.29
2022-08-03T22:21:49.897Z,23.17
2022-08-03T22:24:20.076Z,23.21
2022-08-03T22:27:09.809Z,23.20
2022-08-03T22:29:39.020Z,23.11
2022-08-03T22:32:06.668Z,23.05
2022-08-03T22:34:33.447Z,23.04
2022-08-03T22:37:03.152Z,23.00
2022-08-03T22:39:30.097Z,22.92
2022-08-03T22:41:58.880Z,22.98
2022-08-03T22:44:28.630Z,22.88
2022-08-03T22:46:56.078Z,22.81
2022-08-03T22:49:22.850Z,22.75
2022-08-03T22:51:51.565Z,22.77
2022-08-03T22:54:18.161Z,22.72
2022-08-03T22:56:46.627Z,22.73
2022-08-03T22:59:39.990Z,22.71
2022-08-03T23:02:19.967Z,22.70
2022-08-03T23:04:52.907Z,22.68
2022-08-03T23:07:27.251Z,22.65
2022-08-03T23:09:56.011Z,22.68
2022-08-03T23:12:23.608Z,22.69
2022-08-03T23:14:56.375Z,22.66
2022-08-03T23:17:24.056Z,22.59
2022-08-03T23:19:52.609Z,22.56
2022-08-03T23:22:29.904Z,22.44
2022-08-03T23:24:57.939Z,22.59
2022-08-03T23:27:26.404Z,22.55
2022-08-03T23:29:53.852Z,22.54
2022-08-03T23:32:20.992Z,22.46
2022-08-03T23:35:07.254Z,22.50
2022-08-03T23:37:34.855Z,22.45
2022-08-03T23:40:24.555Z,22.43
2022-08-03T23:42:51.787Z,22.49
2022-08-03T23:45:19.632Z,22.48
2022-08-03T23:47:47.668Z,22.45
2022-08-03T23:50:14.816Z,22.40
2022-08-03T23:53:11.845Z,22.42
2022-08-03T23:55:38.259Z,22.36
2022-08-03T23:58:27.807Z,22.37
